Portada
METAR-TAF:

METAR-TAF

Aeropuertos :

Hassi Messaoud, Argelia

latitud: 31-40N, longitud: 006-09E, altitud: 142 m

Observación

El informe se hizo hace 18 minutos, a las 15:30 UTC
Viento 3 kt del norte-noroeste
Temperatura 16°C
Humedad 59%
Presión 1029 hPa
Visibilidad 10 km o más
sin nubes por debajo de 1500 m y sin presencia de cumulonimbus.

METAR: DAUH 171530Z 34003KT CAVOK 16/08 Q1029

Hora: 16:48 (15:48 UTC)

Pronóstico

El informe se hizo hace 4 horas y 48 minutos, a las 11:00 UTC
Pronóstico válido del 17 a las 12 UTC al 18 a las 12 UTC
Viento 2 kt con dirección variable
Visibilidad 10 km o más
sin nubes por debajo de 1500 m y sin presencia de cumulonimbus.

TAF: DAUH 171100Z 1712/1812 VRB02KT CAVOK

Observaciones y pronósticos meteorológicos de más de 4000 aeropuertos (mensajes METAR y TAF).

Los puntos amarillos y rojos representan las estaciones disponibles.

Ponga el ratón en el punto deseado para ver el nombre de la estación.

Haga clic para ver las observaciones y los pronósticos meteorológicos.

Para cambiar el mapa : haga clic en los botones verdes con una cruz de color negro para hacer un zoom, en el botón verde con un guión para alejar o en las flechas verdes para mapas adyacentes.


METAR-TAF: